Time;durP1;ratioP1;P1;durP2;ratioP2;P2;SDS_P1;SDS_P2;PMS_P1;PMS_P2;Temp;Humidity;BMP_temperature;BMP_pressure;BME280_temperature;BME280_humidity;BME280_pressure;Samples;Min_cycle;Max_cycle;Signal;HPM_P1;HPM_P2
2023/10/01 00:01:19;;;;;;;18.13;8.45;;;;;;;;;;5058647;28;20041;-68
2023/10/01 00:03:45;;;;;;;17.88;8.43;;;;;;;;;;5060191;28;20043;-68
2023/10/01 00:06:11;;;;;;;17.92;8.77;;;;;;;;;;5059060;28;20059;-68
2023/10/01 00:08:37;;;;;;;16.92;8.70;;;;;;;;;;5056646;28;20578;-68
2023/10/01 00:11:03;;;;;;;19.52;8.95;;;;;;;;;;5058483;28;20044;-68
2023/10/01 00:13:29;;;;;;;19.85;8.93;;;;;;;;;;5059197;28;20060;-68
2023/10/01 00:15:55;;;;;;;16.67;8.70;;;;;;;;;;5060978;28;20406;-68
2023/10/01 00:18:22;;;;;;;19.52;9.07;;;;;;;;;;5059304;28;20041;-68
2023/10/01 00:20:48;;;;;;;16.88;8.52;;;;;;;;;;5060212;28;20040;-68
2023/10/01 00:23:14;;;;;;;17.65;8.95;;;;;;;;;;5058872;28;20127;-68
2023/10/01 00:25:43;;;;;;;15.52;9.20;;;;;;;;;;5059262;28;20124;-68
2023/10/01 00:28:09;;;;;;;15.15;9.10;;;;;;;;;;5057155;28;20036;-68
2023/10/01 00:30:36;;;;;;;16.85;9.05;;;;;;;;;;5057870;28;20449;-68
2023/10/01 00:33:06;;;;;;;13.23;8.07;;;;;;;;;;5062250;28;20040;-68
2023/10/01 00:35:32;;;;;;;19.85;9.90;;;;;;;;;;5056659;28;20064;-68
2023/10/01 00:37:58;;;;;;;16.80;8.95;;;;;;;;;;5052022;28;20044;-68
2023/10/01 00:40:23;;;;;;;17.02;8.98;;;;;;;;;;5062851;28;20222;-68
2023/10/01 00:42:49;;;;;;;17.42;8.88;;;;;;;;;;5065116;28;20076;-68
2023/10/01 00:45:15;;;;;;;16.13;8.88;;;;;;;;;;5062736;28;20059;-68
2023/10/01 00:47:47;;;;;;;13.50;8.27;;;;;;;;;;5059162;28;20064;-68
2023/10/01 00:50:15;;;;;;;16.52;8.65;;;;;;;;;;5060791;28;20040;-68
2023/10/01 00:52:41;;;;;;;14.48;8.57;;;;;;;;;;5055886;28;20055;-68
2023/10/01 00:55:08;;;;;;;16.10;9.52;;;;;;;;;;5057487;28;20143;-68
2023/10/01 00:57:37;;;;;;;17.45;8.88;;;;;;;;;;5060819;28;20537;-68
2023/10/01 01:00:04;;;;;;;15.52;9.25;;;;;;;;;;5063692;28;20122;-68
2023/10/01 01:02:30;;;;;;;15.60;8.68;;;;;;;;;;5061134;28;20041;-67
2023/10/01 01:05:20;;;;;;;17.60;9.57;;;;;;;;;;5058656;28;20419;-67
2023/10/01 01:07:47;;;;;;;16.98;9.02;;;;;;;;;;5063632;28;20044;-67
2023/10/01 01:10:16;;;;;;;14.52;8.80;;;;;;;;;;5062891;28;20040;-67
2023/10/01 01:12:42;;;;;;;17.45;8.90;;;;;;;;;;5062574;28;20119;-67
2023/10/01 01:15:12;;;;;;;15.73;9.27;;;;;;;;;;5065861;28;20044;-67
2023/10/01 01:17:38;;;;;;;16.40;9.10;;;;;;;;;;5058460;28;20045;-67
2023/10/01 01:20:09;;;;;;;18.33;9.68;;;;;;;;;;5058006;28;20043;-67
2023/10/01 01:22:37;;;;;;;17.20;9.55;;;;;;;;;;5043015;28;20402;-67
2023/10/01 01:25:10;;;;;;;17.77;10.35;;;;;;;;;;5066205;28;20521;-67
2023/10/01 01:27:37;;;;;;;19.10;10.70;;;;;;;;;;5060053;28;20037;-67
2023/10/01 01:30:08;;;;;;;19.17;11.02;;;;;;;;;;5063135;28;20189;-67
2023/10/01 01:32:36;;;;;;;17.73;11.02;;;;;;;;;;5062314;28;20048;-67
2023/10/01 01:35:04;;;;;;;16.98;10.40;;;;;;;;;;5066231;28;20040;-67
2023/10/01 01:37:46;;;;;;;22.38;10.95;;;;;;;;;;5058993;28;20040;-67
2023/10/01 01:40:25;;;;;;;20.45;10.88;;;;;;;;;;5064355;28;20049;-67
2023/10/01 01:42:56;;;;;;;17.35;10.13;;;;;;;;;;5058554;28;20120;-67
2023/10/01 01:45:25;;;;;;;19.05;11.68;;;;;;;;;;5058892;28;20521;-67
2023/10/01 01:47:51;;;;;;;18.50;10.73;;;;;;;;;;5058819;28;20068;-67
2023/10/01 01:50:21;;;;;;;19.17;11.50;;;;;;;;;;5063486;28;20029;-67
2023/10/01 01:52:49;;;;;;;17.23;10.90;;;;;;;;;;5064249;28;20044;-67
2023/10/01 01:55:27;;;;;;;18.48;11.55;;;;;;;;;;5058883;28;20045;-67
2023/10/01 01:58:08;;;;;;;20.55;11.23;;;;;;;;;;5056268;28;20095;-67
2023/10/01 02:00:35;;;;;;;18.63;11.27;;;;;;;;;;5053940;28;20053;-67
2023/10/01 02:03:10;;;;;;;20.17;11.70;;;;;;;;;;5058954;28;20742;-67
2023/10/01 02:05:42;;;;;;;20.05;11.75;;;;;;;;;;5053245;28;20029;-67
2023/10/01 02:08:23;;;;;;;19.40;12.15;;;;;;;;;;5052498;28;20048;-67
2023/10/01 02:10:54;;;;;;;16.85;11.73;;;;;;;;;;5059405;28;20056;-67
2023/10/01 02:13:21;;;;;;;20.88;11.77;;;;;;;;;;5059384;28;20109;-67
2023/10/01 02:15:47;;;;;;;17.20;11.88;;;;;;;;;;5058274;28;20049;-67
2023/10/01 02:18:16;;;;;;;23.55;11.88;;;;;;;;;;5075862;22;20048;-71
2023/10/01 02:20:52;;;;;;;18.98;11.88;;;;;;;;;;5062738;28;20029;-71
2023/10/01 02:23:33;;;;;;;20.15;12.13;;;;;;;;;;5064882;28;20418;-71
2023/10/01 02:26:00;;;;;;;;;;;;;;;;;;5060495;28;20056;-71
2023/10/01 02:28:26;;;;;;;18.50;12.23;;;;;;;;;;5052304;28;20386;-71
2023/10/01 02:31:00;;;;;;;21.30;13.35;;;;;;;;;;5063504;28;20036;-71
2023/10/01 02:33:55;;;;;;;20.67;12.60;;;;;;;;;;5045183;28;20044;-71
2023/10/01 02:36:15;;;;;;;21.55;12.98;;;;;;;;;;5063666;28;20044;-69
2023/10/01 02:38:45;;;;;;;25.25;12.85;;;;;;;;;;5055014;28;20112;-69
2023/10/01 02:41:15;;;;;;;19.90;12.33;;;;;;;;;;5065508;28;20040;-69
2023/10/01 02:43:41;;;;;;;22.92;12.75;;;;;;;;;;5057732;28;20487;-69
2023/10/01 02:46:26;;;;;;;18.67;12.35;;;;;;;;;;5065268;28;20047;-69
2023/10/01 02:48:54;;;;;;;21.38;12.82;;;;;;;;;;5056148;28;20044;-69
2023/10/01 02:51:32;;;;;;;20.10;12.77;;;;;;;;;;5064495;28;20055;-69
2023/10/01 02:54:04;;;;;;;22.90;12.95;;;;;;;;;;5064695;28;20040;-69
2023/10/01 02:56:34;;;;;;;19.90;12.93;;;;;;;;;;5057377;28;20051;-69
2023/10/01 02:59:13;;;;;;;23.67;13.20;;;;;;;;;;5058953;28;20048;-69
2023/10/01 03:01:42;;;;;;;23.17;12.80;;;;;;;;;;5060717;28;20040;-69
2023/10/01 03:04:16;;;;;;;21.67;12.57;;;;;;;;;;5065539;28;20051;-69
2023/10/01 03:06:47;;;;;;;20.38;13.35;;;;;;;;;;5053514;28;20037;-69
2023/10/01 03:09:34;;;;;;;20.90;13.45;;;;;;;;;;5063064;28;20130;-69
2023/10/01 03:15:35;;;;;;;20.48;12.77;;;;;;;;;;5063337;28;20128;-69
2023/10/01 03:17:38;;;;;;;21.90;13.00;;;;;;;;;;5045289;28;20127;-71
2023/10/01 03:22:53;;;;;;;23.40;12.93;;;;;;;;;;5061428;28;20079;-70
2023/10/01 03:25:20;;;;;;;20.70;12.48;;;;;;;;;;5061535;28;20045;-70
2023/10/01 03:27:46;;;;;;;19.85;11.82;;;;;;;;;;5061957;28;20064;-70
2023/10/01 03:30:23;;;;;;;21.33;12.52;;;;;;;;;;5064639;28;20409;-70
2023/10/01 03:32:49;;;;;;;21.95;13.02;;;;;;;;;;5056637;28;20053;-70
2023/10/01 03:35:20;;;;;;;23.55;13.20;;;;;;;;;;5058196;28;20052;-69
2023/10/01 03:38:09;;;;;;;19.10;11.85;;;;;;;;;;5061693;28;20076;-69
2023/10/01 03:40:36;;;;;;;20.58;12.80;;;;;;;;;;5062417;28;20045;-70
2023/10/01 03:43:04;;;;;;;19.60;11.43;;;;;;;;;;5064813;28;20151;-70
2023/10/01 03:47:59;;;;;;;20.50;12.18;;;;;;;;;;5062540;28;20072;-70
2023/10/01 03:50:26;;;;;;;19.00;11.93;;;;;;;;;;5055539;28;20064;-70
2023/10/01 03:52:54;;;;;;;18.85;11.85;;;;;;;;;;5063148;28;20059;-70
2023/10/01 03:55:26;;;;;;;22.30;11.30;;;;;;;;;;5057515;28;20136;-70
2023/10/01 04:00:40;;;;;;;20.52;11.27;;;;;;;;;;5055460;28;20055;-70
2023/10/01 04:03:06;;;;;;;19.45;11.20;;;;;;;;;;5052077;28;20483;-70
2023/10/01 04:05:34;;;;;;;22.20;11.73;;;;;;;;;;5053338;28;20037;-70
2023/10/01 04:08:11;;;;;;;20.35;12.57;;;;;;;;;;5056074;28;20147;-70
2023/10/01 04:10:41;;;;;;;19.45;11.07;;;;;;;;;;5059138;28;20040;-70
2023/10/01 04:13:20;;;;;;;22.23;11.43;;;;;;;;;;5051127;28;20051;-70
2023/10/01 04:15:49;;;;;;;19.50;11.82;;;;;;;;;;5049542;28;20098;-70
2023/10/01 04:20:48;;;;;;;19.98;11.10;;;;;;;;;;5060949;28;20051;-70
2023/10/01 04:23:24;;;;;;;20.52;11.15;;;;;;;;;;5058353;28;20049;-70
2023/10/01 04:25:51;;;;;;;21.17;11.98;;;;;;;;;;5061030;28;20072;-70
2023/10/01 04:28:18;;;;;;;21.15;10.50;;;;;;;;;;5052807;28;20044;-70
2023/10/01 04:30:45;;;;;;;22.13;11.63;;;;;;;;;;5055200;28;20536;-70
2023/10/01 04:33:17;;;;;;;17.95;10.50;;;;;;;;;;5058474;28;20470;-70
2023/10/01 04:35:58;;;;;;;19.10;10.63;;;;;;;;;;5062382;28;21760;-70
2023/10/01 04:38:28;;;;;;;20.48;11.10;;;;;;;;;;5061400;28;20107;-70
2023/10/01 04:40:55;;;;;;;15.00;10.20;;;;;;;;;;5061809;28;20509;-70
2023/10/01 04:43:21;;;;;;;21.55;11.38;;;;;;;;;;5067904;28;20075;-70
2023/10/01 04:45:52;;;;;;;16.98;10.10;;;;;;;;;;5062972;28;20037;-70
2023/10/01 04:48:24;;;;;;;;;;;;;;;;;;5062616;28;20101;-70
2023/10/01 04:50:53;;;;;;;17.30;9.82;;;;;;;;;;5066590;28;20015;-70
2023/10/01 04:53:20;;;;;;;16.00;9.82;;;;;;;;;;5059147;28;20044;-70
2023/10/01 04:55:58;;;;;;;18.30;9.75;;;;;;;;;;5060566;28;20511;-70
2023/10/01 04:58:26;;;;;;;16.40;9.35;;;;;;;;;;5055040;28;20044;-70
2023/10/01 05:00:52;;;;;;;15.32;9.35;;;;;;;;;;5051932;28;20124;-70
2023/10/01 05:03:20;;;;;;;16.42;9.52;;;;;;;;;;5047610;28;20554;-70
2023/10/01 05:05:48;;;;;;;15.93;9.27;;;;;;;;;;5055197;28;20118;-70
2023/10/01 05:08:14;;;;;;;17.95;9.48;;;;;;;;;;5054343;28;20037;-70
2023/10/01 05:10:53;;;;;;;16.08;9.52;;;;;;;;;;5051155;28;20032;-70
2023/10/01 05:13:20;;;;;;;15.27;9.10;;;;;;;;;;5064435;28;20079;-70
2023/10/01 05:15:58;;;;;;;15.48;9.45;;;;;;;;;;5058789;28;20033;-70
2023/10/01 05:18:27;;;;;;;18.05;10.00;;;;;;;;;;5062362;28;20083;-70
2023/10/01 05:20:58;;;;;;;16.38;9.07;;;;;;;;;;5054196;28;20043;-70
2023/10/01 05:23:25;;;;;;;16.48;9.20;;;;;;;;;;5066563;28;20055;-70
2023/10/01 05:25:51;;;;;;;17.30;9.02;;;;;;;;;;5062287;28;20528;-70
2023/10/01 05:28:34;;;;;;;19.92;10.10;;;;;;;;;;5058202;28;20140;-70
2023/10/01 05:31:06;;;;;;;14.98;8.60;;;;;;;;;;5055080;28;20326;-70
2023/10/01 05:33:33;;;;;;;14.27;8.65;;;;;;;;;;5058173;28;20094;-70
2023/10/01 05:36:05;;;;;;;16.45;8.52;;;;;;;;;;5061082;28;20044;-70
2023/10/01 05:38:35;;;;;;;19.65;9.20;;;;;;;;;;5058380;28;20033;-71
2023/10/01 05:41:04;;;;;;;18.33;8.60;;;;;;;;;;5059107;28;20127;-71
2023/10/01 05:43:35;;;;;;;15.57;8.38;;;;;;;;;;5059992;28;20101;-71
2023/10/01 05:46:01;;;;;;;;;;;;;;;;;;5062709;28;20040;-71
2023/10/01 05:48:28;;;;;;;19.63;9.60;;;;;;;;;;5040186;28;19962;-71
2023/10/01 05:50:57;;;;;;;18.75;9.13;;;;;;;;;;5061956;28;20514;-71
2023/10/01 05:53:24;;;;;;;19.25;9.27;;;;;;;;;;5061423;28;20051;-71
2023/10/01 05:55:50;;;;;;;16.73;8.27;;;;;;;;;;5064924;28;20037;-71
2023/10/01 05:58:16;;;;;;;18.52;9.07;;;;;;;;;;5065514;28;20068;-71
2023/10/01 06:00:56;;;;;;;18.55;9.20;;;;;;;;;;5054158;28;20407;-71
2023/10/01 06:03:23;;;;;;;18.33;9.88;;;;;;;;;;5034677;28;20051;-71
2023/10/01 06:05:58;;;;;;;15.15;8.77;;;;;;;;;;5055062;28;20041;-71
2023/10/01 06:08:44;;;;;;;14.82;8.77;;;;;;;;;;5058312;28;20045;-71
2023/10/01 06:11:13;;;;;;;17.50;8.77;;;;;;;;;;5060793;28;20040;-71
2023/10/01 06:13:48;;;;;;;18.25;9.18;;;;;;;;;;5063194;28;20089;-71
2023/10/01 06:16:22;;;;;;;16.70;8.85;;;;;;;;;;5062111;28;20044;-71
2023/10/01 06:18:51;;;;;;;17.75;9.15;;;;;;;;;;5053374;28;20040;-71
2023/10/01 06:21:18;;;;;;;18.50;9.10;;;;;;;;;;5060185;28;20090;-71
2023/10/01 06:23:51;;;;;;;20.27;8.80;;;;;;;;;;5061816;28;20391;-71
2023/10/01 06:28:44;;;;;;;18.60;9.27;;;;;;;;;;5079311;22;20079;-70
2023/10/01 06:31:10;;;;;;;17.05;9.88;;;;;;;;;;5051807;28;20041;-70
2023/10/01 06:33:36;;;;;;;14.05;8.18;;;;;;;;;;5076097;28;20035;-70
2023/10/01 06:36:16;;;;;;;15.13;7.85;;;;;;;;;;5071033;28;20405;-70
2023/10/01 06:38:44;;;;;;;17.45;8.80;;;;;;;;;;5050690;28;20036;-70
2023/10/01 06:41:16;;;;;;;17.23;9.40;;;;;;;;;;5062986;22;20601;-66
2023/10/01 06:43:48;;;;;;;15.68;9.15;;;;;;;;;;5045191;28;20045;-66
2023/10/01 06:46:15;;;;;;;18.40;9.80;;;;;;;;;;5046692;28;20045;-66
2023/10/01 06:48:42;;;;;;;16.48;8.60;;;;;;;;;;5027676;28;20034;-66
2023/10/01 06:51:08;;;;;;;19.05;9.52;;;;;;;;;;5030689;28;20041;-66
2023/10/01 06:53:45;;;;;;;18.90;9.45;;;;;;;;;;5029934;28;20073;-66
2023/10/01 06:56:14;;;;;;;19.92;10.35;;;;;;;;;;5027756;28;20124;-66
2023/10/01 06:58:40;;;;;;;17.83;8.77;;;;;;;;;;5027083;28;20049;-66
2023/10/01 07:01:33;;;;;;;17.13;9.85;;;;;;;;;;5030264;28;20135;-66
2023/10/01 07:03:54;;;;;;;16.85;9.85;;;;;;;;;;5028741;28;20046;-66
2023/10/01 07:06:22;;;;;;;17.75;9.57;;;;;;;;;;5026763;28;20077;-66
2023/10/01 07:08:48;;;;;;;15.75;9.00;;;;;;;;;;5028701;28;20037;-66
2023/10/01 07:11:18;;;;;;;22.17;9.52;;;;;;;;;;5032219;28;20037;-66
2023/10/01 07:13:44;;;;;;;16.92;9.40;;;;;;;;;;5030759;28;20048;-66
2023/10/01 07:16:10;;;;;;;18.75;9.45;;;;;;;;;;5012581;28;20049;-66
2023/10/01 07:18:37;;;;;;;18.00;9.63;;;;;;;;;;5025417;28;20037;-66
2023/10/01 07:21:11;;;;;;;16.98;9.23;;;;;;;;;;5035226;28;20045;-66
2023/10/01 07:23:37;;;;;;;15.90;8.38;;;;;;;;;;5026235;28;20084;-66
2023/10/01 07:26:05;;;;;;;18.75;9.32;;;;;;;;;;5027456;28;20048;-66
2023/10/01 07:28:31;;;;;;;17.98;8.75;;;;;;;;;;5029298;28;20052;-66
2023/10/01 07:31:02;;;;;;;18.15;8.95;;;;;;;;;;5029847;28;20484;-66
2023/10/01 07:33:28;;;;;;;22.42;9.23;;;;;;;;;;5027471;28;20081;-66
2023/10/01 07:36:01;;;;;;;16.38;8.75;;;;;;;;;;5029155;28;20033;-66
2023/10/01 07:38:32;;;;;;;17.77;8.98;;;;;;;;;;5023611;28;20045;-66
2023/10/01 07:40:58;;;;;;;14.65;8.35;;;;;;;;;;5029967;28;20065;-66
2023/10/01 07:43:30;;;;;;;15.55;9.00;;;;;;;;;;5029558;28;20040;-66
2023/10/01 07:45:58;;;;;;;17.52;8.73;;;;;;;;;;5030684;28;20454;-66
2023/10/01 07:48:31;;;;;;;19.52;9.60;;;;;;;;;;5029920;28;20507;-66
2023/10/01 07:50:58;;;;;;;17.58;8.98;;;;;;;;;;5026875;28;20045;-66
2023/10/01 07:53:32;;;;;;;15.90;8.48;;;;;;;;;;5027742;28;20430;-66
2023/10/01 07:55:59;;;;;;;18.00;8.48;;;;;;;;;;5030899;28;20500;-66
2023/10/01 07:59:16;;;;;;;17.23;8.25;;;;;;;;;;5029675;28;20041;-66
2023/10/01 08:04:06;;;;;;;16.17;9.10;;;;;;;;;;5026551;28;20454;-67
2023/10/01 08:06:41;;;;;;;18.60;8.90;;;;;;;;;;5029429;28;20037;-66
2023/10/01 08:09:08;;;;;;;16.48;7.90;;;;;;;;;;5026952;28;20041;-66
2023/10/01 08:14:20;;;;;;;17.15;9.10;;;;;;;;;;5029389;28;20092;-66
2023/10/01 08:16:50;;;;;;;16.40;8.68;;;;;;;;;;5031297;28;20049;-66
2023/10/01 08:19:20;;;;;;;15.77;8.30;;;;;;;;;;5030170;28;20139;-66
2023/10/01 08:21:50;;;;;;;16.83;8.80;;;;;;;;;;5031768;28;20526;-66
2023/10/01 08:24:18;;;;;;;18.33;8.35;;;;;;;;;;5030826;28;20049;-66
2023/10/01 08:26:57;;;;;;;18.13;7.95;;;;;;;;;;5030048;28;20055;-66
2023/10/01 08:29:59;;;;;;;16.35;8.23;;;;;;;;;;5030828;28;20080;-66
2023/10/01 08:32:22;;;;;;;17.73;7.82;;;;;;;;;;5023547;28;20492;-68
2023/10/01 08:35:01;;;;;;;17.65;8.20;;;;;;;;;;5033087;28;20041;-68
2023/10/01 08:37:31;;;;;;;16.13;7.88;;;;;;;;;;5021456;28;20124;-68
2023/10/01 08:39:57;;;;;;;15.18;7.72;;;;;;;;;;5017326;28;20403;-68
2023/10/01 08:42:28;;;;;;;16.88;7.40;;;;;;;;;;5026215;28;20507;-68
2023/10/01 08:44:54;;;;;;;;;;;;;;;;;;5023318;28;20504;-68
2023/10/01 08:47:21;;;;;;;16.10;7.63;;;;;;;;;;5022801;28;19921;-68
2023/10/01 08:49:51;;;;;;;18.83;7.28;;;;;;;;;;5024346;28;20117;-68
2023/10/01 08:52:21;;;;;;;16.58;7.35;;;;;;;;;;5019807;28;20495;-68
2023/10/01 08:54:49;;;;;;;14.82;7.70;;;;;;;;;;5028302;28;20041;-68
2023/10/01 08:57:17;;;;;;;15.75;7.07;;;;;;;;;;5026136;28;20042;-68
2023/10/01 08:59:43;;;;;;;18.40;6.90;;;;;;;;;;5018183;28;20041;-68
2023/10/01 09:02:16;;;;;;;15.80;7.55;;;;;;;;;;5028710;28;20480;-68
2023/10/01 09:04:44;;;;;;;16.38;7.18;;;;;;;;;;5019143;28;20076;-68
2023/10/01 09:07:20;;;;;;;20.20;7.85;;;;;;;;;;5027472;28;20045;-68
2023/10/01 09:10:06;;;;;;;14.73;7.25;;;;;;;;;;5026891;28;20034;-68
2023/10/01 09:12:45;;;;;;;15.73;7.30;;;;;;;;;;5023875;28;20060;-68
2023/10/01 09:15:22;;;;;;;16.42;7.28;;;;;;;;;;5028935;28;20075;-68
2023/10/01 09:17:57;;;;;;;15.95;7.22;;;;;;;;;;5031344;28;20499;-66
2023/10/01 09:20:39;;;;;;;14.40;6.93;;;;;;;;;;5026697;28;20514;-66
2023/10/01 09:23:06;;;;;;;13.93;7.03;;;;;;;;;;5029256;28;20045;-66
2023/10/01 09:25:34;;;;;;;14.60;7.05;;;;;;;;;;5025571;28;20041;-66
2023/10/01 09:28:04;;;;;;;17.10;7.57;;;;;;;;;;5027324;28;20072;-66
2023/10/01 09:30:47;;;;;;;17.83;8.07;;;;;;;;;;5027618;28;20040;-66
2023/10/01 09:33:23;;;;;;;15.70;6.82;;;;;;;;;;5033333;28;20300;-66
2023/10/01 09:36:02;;;;;;;13.25;6.63;;;;;;;;;;5032776;28;20037;-66
2023/10/01 09:38:29;;;;;;;13.30;6.68;;;;;;;;;;5025118;28;20425;-66
2023/10/01 09:40:56;;;;;;;17.08;7.10;;;;;;;;;;5024307;28;20472;-66
2023/10/01 09:43:27;;;;;;;17.88;6.72;;;;;;;;;;5025509;28;20026;-66
2023/10/01 09:45:53;;;;;;;17.27;7.22;;;;;;;;;;5021827;28;20534;-66
2023/10/01 09:48:29;;;;;;;14.80;6.78;;;;;;;;;;5012385;28;20117;-66
2023/10/01 09:51:03;;;;;;;16.38;7.65;;;;;;;;;;5033262;28;20048;-66
2023/10/01 09:53:31;;;;;;;16.08;7.03;;;;;;;;;;5032860;28;20132;-66
2023/10/01 09:55:59;;;;;;;17.42;7.03;;;;;;;;;;5031650;28;20120;-66
2023/10/01 09:58:25;;;;;;;17.73;7.13;;;;;;;;;;5031310;28;20037;-67
2023/10/01 10:00:52;;;;;;;16.48;7.57;;;;;;;;;;5030065;28;20044;-66
2023/10/01 10:03:18;;;;;;;14.85;6.72;;;;;;;;;;5032237;28;20172;-66
2023/10/01 10:05:46;;;;;;;16.67;6.93;;;;;;;;;;5031410;28;20055;-66
2023/10/01 10:08:16;;;;;;;14.15;6.65;;;;;;;;;;5032804;28;20088;-66
2023/10/01 10:10:48;;;;;;;14.60;6.72;;;;;;;;;;5030977;28;20488;-66
2023/10/01 10:13:36;;;;;;;16.65;7.50;;;;;;;;;;5033458;28;20112;-66
2023/10/01 10:19:12;;;;;;;15.63;6.90;;;;;;;;;;5027282;28;20053;-66
2023/10/01 10:24:29;;;;;;;19.00;7.40;;;;;;;;;;5025938;28;20045;-66
2023/10/01 10:27:00;;;;;;;15.45;6.63;;;;;;;;;;5026451;28;20148;-66
2023/10/01 10:29:26;;;;;;;;;;;;;;;;;;5029781;28;20120;-66
2023/10/01 10:32:10;;;;;;;14.77;7.10;;;;;;;;;;5023403;28;19971;-66
2023/10/01 10:34:47;;;;;;;15.48;6.63;;;;;;;;;;5026374;28;20065;-66
2023/10/01 10:37:33;;;;;;;14.55;5.90;;;;;;;;;;5030108;28;20045;-66
2023/10/01 10:40:04;;;;;;;14.55;6.40;;;;;;;;;;5027377;28;20042;-66
2023/10/01 10:42:30;;;;;;;17.35;6.90;;;;;;;;;;5024277;28;20465;-66
2023/10/01 10:45:20;;;;;;;15.98;6.72;;;;;;;;;;5026807;28;20046;-66
2023/10/01 10:47:59;;;;;;;16.92;7.45;;;;;;;;;;5029650;28;20037;-67
2023/10/01 10:50:50;;;;;;;17.15;7.00;;;;;;;;;;5032193;28;20046;-67
2023/10/01 10:53:19;;;;;;;14.65;6.43;;;;;;;;;;5032977;28;20053;-67
2023/10/01 10:56:07;;;;;;;14.75;6.85;;;;;;;;;;5031911;28;20090;-67
2023/10/01 10:58:42;;;;;;;18.10;7.07;;;;;;;;;;5031331;28;20049;-67
2023/10/01 11:01:23;;;;;;;15.60;6.85;;;;;;;;;;5029449;28;20128;-67
2023/10/01 11:03:54;;;;;;;19.48;7.18;;;;;;;;;;5028748;28;20046;-67
2023/10/01 11:06:20;;;;;;;17.38;6.75;;;;;;;;;;5031753;28;20403;-67
2023/10/01 11:08:50;;;;;;;15.25;6.68;;;;;;;;;;5028386;28;20029;-67
2023/10/01 11:11:28;;;;;;;19.13;8.18;;;;;;;;;;5029662;28;20052;-67
2023/10/01 11:14:00;;;;;;;15.90;7.32;;;;;;;;;;5029618;28;20049;-67
2023/10/01 11:16:37;;;;;;;16.98;6.50;;;;;;;;;;5024417;28;20041;-67
2023/10/01 11:19:12;;;;;;;17.42;7.45;;;;;;;;;;5024699;28;20384;-67
2023/10/01 11:22:00;;;;;;;16.23;7.10;;;;;;;;;;5031668;28;20403;-67
2023/10/01 11:24:30;;;;;;;16.75;6.82;;;;;;;;;;5032434;28;20041;-67
2023/10/01 11:27:14;;;;;;;18.08;7.18;;;;;;;;;;5030843;28;20037;-67
2023/10/01 11:29:43;;;;;;;17.65;6.82;;;;;;;;;;5031498;28;20046;-67
2023/10/01 11:32:16;;;;;;;16.40;7.18;;;;;;;;;;5023673;28;20496;-67
2023/10/01 11:34:45;;;;;;;18.38;7.13;;;;;;;;;;5032253;28;20046;-67
2023/10/01 11:37:18;;;;;;;14.75;6.35;;;;;;;;;;5030396;28;20553;-67
2023/10/01 11:39:52;;;;;;;19.42;7.15;;;;;;;;;;5031061;28;20045;-67
2023/10/01 11:42:35;;;;;;;18.58;7.00;;;;;;;;;;5031609;28;20049;-67
2023/10/01 11:45:28;;;;;;;18.25;7.03;;;;;;;;;;5032233;28;20068;-67
2023/10/01 11:48:05;;;;;;;16.27;7.28;;;;;;;;;;5029798;28;20049;-67
2023/10/01 11:50:31;;;;;;;17.05;7.00;;;;;;;;;;5031675;28;20103;-67
2023/10/01 11:53:04;;;;;;;16.65;6.85;;;;;;;;;;5031864;28;20049;-67
2023/10/01 11:55:33;;;;;;;13.15;5.95;;;;;;;;;;5031282;28;20045;-67
2023/10/01 11:57:59;;;;;;;16.92;7.13;;;;;;;;;;5030103;28;20045;-67
2023/10/01 12:03:13;;;;;;;13.23;6.03;;;;;;;;;;5013639;28;20053;-67
2023/10/01 12:05:41;;;;;;;14.43;6.40;;;;;;;;;;5029996;28;20041;-67
2023/10/01 12:08:14;;;;;;;14.98;6.07;;;;;;;;;;5030972;28;20128;-67
2023/10/01 12:10:41;;;;;;;13.88;5.97;;;;;;;;;;5030883;28;20407;-67
2023/10/01 12:13:07;;;;;;;12.85;6.30;;;;;;;;;;5031627;28;20064;-67
2023/10/01 12:15:33;;;;;;;15.80;5.90;;;;;;;;;;5030531;28;20136;-67
2023/10/01 12:18:07;;;;;;;14.13;5.90;;;;;;;;;;5030847;28;20041;-67
2023/10/01 12:20:39;;;;;;;16.05;6.68;;;;;;;;;;5031053;28;20049;-67
2023/10/01 12:23:12;;;;;;;15.80;6.13;;;;;;;;;;5031566;28;20095;-67
2023/10/01 12:28:15;;;;;;;14.20;5.80;;;;;;;;;;5030546;28;20052;-67
2023/10/01 12:30:41;;;;;;;12.43;6.28;;;;;;;;;;5031388;28;20120;-67
2023/10/01 12:33:07;;;;;;;16.08;6.18;;;;;;;;;;5031221;28;20132;-67
2023/10/01 12:35:34;;;;;;;12.82;5.88;;;;;;;;;;5029975;28;20172;-67
2023/10/01 12:38:34;;;;;;;14.02;6.20;;;;;;;;;;5030215;28;20033;-67
2023/10/01 12:40:54;;;;;;;15.02;6.13;;;;;;;;;;5050128;22;20045;-71
2023/10/01 12:43:36;;;;;;;15.25;5.70;;;;;;;;;;5050975;28;20494;-71
2023/10/01 12:46:04;;;;;;;16.73;6.63;;;;;;;;;;5049798;28;20106;-71
2023/10/01 12:48:30;;;;;;;16.23;6.20;;;;;;;;;;5050119;28;20071;-71
2023/10/01 12:51:07;;;;;;;14.02;6.00;;;;;;;;;;5035492;28;20076;-71
2023/10/01 12:53:47;;;;;;;13.32;5.72;;;;;;;;;;5054986;28;20041;-71
2023/10/01 12:56:13;;;;;;;13.90;5.72;;;;;;;;;;5048007;28;20051;-71
2023/10/01 12:58:39;;;;;;;15.98;5.68;;;;;;;;;;5053870;28;20620;-71
2023/10/01 13:04:25;;;;;;;13.57;6.05;;;;;;;;;;5041635;28;20057;-71
2023/10/01 13:06:52;;;;;;;18.35;6.07;;;;;;;;;;5053807;28;20071;-71
2023/10/01 13:12:25;;;;;;;11.63;5.25;;;;;;;;;;5034608;28;20053;-71
2023/10/01 13:17:48;;;;;;;10.50;4.35;;;;;;;;;;5042322;28;20043;-71
2023/10/01 13:20:19;;;;;;;10.98;5.07;;;;;;;;;;5053684;28;20049;-71
2023/10/01 13:22:48;;;;;;;13.80;5.18;;;;;;;;;;5050678;28;20043;-71
2023/10/01 13:25:19;;;;;;;11.20;4.93;;;;;;;;;;5035528;28;20090;-71
2023/10/01 13:27:49;;;;;;;12.07;5.13;;;;;;;;;;5045614;28;20100;-71
2023/10/01 13:30:22;;;;;;;9.73;4.25;;;;;;;;;;5047766;28;20033;-71
2023/10/01 13:35:49;;;;;;;11.57;4.85;;;;;;;;;;5041975;28;20056;-71
2023/10/01 13:38:26;;;;;;;13.20;5.35;;;;;;;;;;5040542;28;20037;-71
2023/10/01 14:08:43;;;;;;;11.77;4.85;;;;;;;;;;5056718;28;20041;-71
2023/10/01 14:08:43;;;;;;;11.13;5.38;;;;;;;;;;5045324;28;20087;-71
2023/10/01 14:11:09;;;;;;;12.55;4.78;;;;;;;;;;5042806;28;20072;-71
2023/10/01 14:13:35;;;;;;;12.52;5.32;;;;;;;;;;5029477;28;20553;-71
2023/10/01 14:19:15;;;;;;;12.73;4.78;;;;;;;;;;5026336;28;20049;-71
2023/10/01 14:21:41;;;;;;;15.10;5.38;;;;;;;;;;5040942;28;20044;-71
2023/10/01 14:24:24;;;;;;;11.75;5.03;;;;;;;;;;5048045;28;20116;-71
2023/10/01 14:26:50;;;;;;;11.85;5.25;;;;;;;;;;5038858;28;20102;-71
2023/10/01 14:29:22;;;;;;;13.00;5.20;;;;;;;;;;5044786;28;20048;-71
2023/10/01 14:31:54;;;;;;;12.90;5.05;;;;;;;;;;5045606;28;20121;-71
2023/10/01 14:34:21;;;;;;;10.48;5.13;;;;;;;;;;5043282;28;20060;-71
2023/10/01 14:36:51;;;;;;;13.98;5.35;;;;;;;;;;5044322;28;20517;-71
2023/10/01 14:39:18;;;;;;;9.77;4.57;;;;;;;;;;5044490;28;20041;-71
2023/10/01 14:41:45;;;;;;;10.93;5.53;;;;;;;;;;5039306;28;20116;-71
2023/10/01 14:44:14;;;;;;;10.90;4.90;;;;;;;;;;5033198;28;20037;-71
2023/10/01 14:46:47;;;;;;;9.65;5.18;;;;;;;;;;5039712;28;20041;-71
2023/10/01 14:49:13;;;;;;;12.60;5.10;;;;;;;;;;5043021;28;20041;-71
2023/10/01 14:51:48;;;;;;;10.93;4.97;;;;;;;;;;5029224;28;20037;-71
2023/10/01 14:54:18;;;;;;;8.40;4.35;;;;;;;;;;5042100;28;20056;-71
2023/10/01 14:56:46;;;;;;;13.40;5.57;;;;;;;;;;5026060;28;20048;-71
2023/10/01 14:59:14;;;;;;;12.10;5.00;;;;;;;;;;5057014;28;20372;-71
2023/10/01 15:01:41;;;;;;;10.88;4.85;;;;;;;;;;5045914;28;20111;-71
2023/10/01 15:04:29;;;;;;;9.50;4.45;;;;;;;;;;5041953;28;20545;-71
2023/10/01 15:07:00;;;;;;;11.35;5.30;;;;;;;;;;5039938;28;20041;-71
2023/10/01 15:09:31;;;;;;;10.32;4.93;;;;;;;;;;5051817;28;20052;-71
2023/10/01 15:11:57;;;;;;;;;;;;;;;;;;5049585;28;20048;-71
2023/10/01 15:14:26;;;;;;;12.40;5.20;;;;;;;;;;5044221;28;19917;-71
2023/10/01 15:16:53;;;;;;;13.25;5.38;;;;;;;;;;5042064;28;20073;-71
2023/10/01 15:19:19;;;;;;;12.75;5.13;;;;;;;;;;5040580;28;20403;-71
2023/10/01 15:21:48;;;;;;;11.13;4.70;;;;;;;;;;5039034;28;20107;-71
2023/10/01 15:24:14;;;;;;;11.82;5.15;;;;;;;;;;5047067;28;20036;-71
2023/10/01 15:26:43;;;;;;;10.88;5.30;;;;;;;;;;5045105;28;20028;-71
2023/10/01 15:29:11;;;;;;;15.63;5.80;;;;;;;;;;5035469;28;20566;-71
2023/10/01 15:31:37;;;;;;;13.27;5.82;;;;;;;;;;5043136;28;20053;-71
2023/10/01 15:34:15;;;;;;;17.38;5.93;;;;;;;;;;5051498;28;20390;-71
2023/10/01 15:36:46;;;;;;;12.68;5.60;;;;;;;;;;5050184;28;20037;-71
2023/10/01 15:39:15;;;;;;;12.40;6.03;;;;;;;;;;5045452;28;20108;-71
2023/10/01 15:41:47;;;;;;;12.50;5.97;;;;;;;;;;5046735;28;20041;-71
2023/10/01 15:44:13;;;;;;;14.85;6.40;;;;;;;;;;5050900;28;20036;-71
2023/10/01 15:46:42;;;;;;;12.55;5.68;;;;;;;;;;5043131;28;20033;-71
2023/10/01 15:49:18;;;;;;;13.27;6.35;;;;;;;;;;5034207;28;20068;-71
2023/10/01 15:51:47;;;;;;;12.13;5.50;;;;;;;;;;5048342;28;20033;-71
2023/10/01 15:54:22;;;;;;;14.90;7.05;;;;;;;;;;5051461;28;20087;-71
2023/10/01 15:56:56;;;;;;;13.73;6.50;;;;;;;;;;5027116;28;20049;-71
2023/10/01 15:59:22;;;;;;;14.65;7.00;;;;;;;;;;5048673;28;20056;-71
2023/10/01 16:01:51;;;;;;;12.48;6.45;;;;;;;;;;5049006;28;20372;-71
2023/10/01 16:04:21;;;;;;;13.90;6.40;;;;;;;;;;5049066;28;20486;-71